Time;durP1;ratioP1;P1;durP2;ratioP2;P2;SDS_P1;SDS_P2;PMS_P1;PMS_P2;Temp;Humidity;BMP_temperature;BMP_pressure;BME280_temperature;BME280_humidity;BME280_pressure;Samples;Min_cycle;Max_cycle;Signal;HPM_P1;HPM_P2
2022/03/03 00:02:09;;;;;;;21.53;14.63;;;-1.80;99.90;;;;;;5005819;28;20886;-50
2022/03/03 00:04:36;;;;;;;17.77;13.30;;;-1.80;99.90;;;;;;5007307;28;20467;-50
2022/03/03 00:07:05;;;;;;;20.37;14.37;;;-1.80;99.90;;;;;;5008569;28;20463;-51
2022/03/03 00:09:31;;;;;;;25.93;16.13;;;-1.90;99.90;;;;;;5010100;28;20586;-50
2022/03/03 00:11:58;;;;;;;25.30;18.80;;;-1.80;99.90;;;;;;5011163;28;20514;-50
2022/03/03 00:14:24;;;;;;;21.83;18.30;;;-1.80;99.90;;;;;;5010225;28;20483;-50
2022/03/03 00:16:51;;;;;;;19.70;15.00;;;-1.80;99.90;;;;;;5011128;28;21047;-49
2022/03/03 00:19:18;;;;;;;19.50;15.60;;;-1.70;99.90;;;;;;4997629;28;20525;-50
2022/03/03 00:21:44;;;;;;;28.27;20.20;;;-1.80;99.90;;;;;;5011496;28;20518;-50
2022/03/03 00:24:12;;;;;;;22.10;17.00;;;-1.80;99.90;;;;;;5006534;28;20472;-50
2022/03/03 00:26:39;;;;;;;21.30;16.13;;;-1.80;99.90;;;;;;5010127;28;20605;-49
2022/03/03 00:29:06;;;;;;;18.20;14.27;;;-1.80;99.90;;;;;;5009117;28;20530;-50
2022/03/03 00:31:33;;;;;;;17.43;13.30;;;-1.90;99.90;;;;;;5010686;28;20443;-50
2022/03/03 00:34:00;;;;;;;20.00;14.97;;;-1.90;99.90;;;;;;5004157;28;20488;-50
2022/03/03 00:36:27;;;;;;;18.80;14.60;;;-1.90;99.90;;;;;;5008091;28;20969;-50
2022/03/03 00:38:53;;;;;;;25.10;15.47;;;-1.90;99.90;;;;;;5007944;28;20468;-49
2022/03/03 00:41:22;;;;;;;17.70;14.30;;;-1.80;99.90;;;;;;5009910;28;20886;-50
2022/03/03 00:43:48;;;;;;;20.17;14.40;;;-1.90;99.90;;;;;;5010565;28;20983;-51
2022/03/03 00:46:15;;;;;;;16.90;12.47;;;-1.80;99.90;;;;;;5010062;28;20545;-49
2022/03/03 00:48:42;;;;;;;20.23;14.80;;;-1.80;99.90;;;;;;5004822;28;20499;-50
2022/03/03 00:51:09;;;;;;;18.33;13.47;;;-1.80;99.90;;;;;;5009268;28;20463;-50
2022/03/03 00:53:38;;;;;;;22.40;15.13;;;-1.80;99.90;;;;;;5009535;28;20464;-50
2022/03/03 00:56:06;;;;;;;22.30;16.40;;;-1.70;99.90;;;;;;5010101;28;20459;-50
2022/03/03 00:58:34;;;;;;;23.50;15.30;;;-1.60;99.90;;;;;;5009611;28;20545;-52
2022/03/03 01:01:01;;;;;;;22.40;15.77;;;-1.50;99.90;;;;;;5006161;28;20534;-52
2022/03/03 01:03:27;;;;;;;20.60;16.30;;;-1.50;99.90;;;;;;5010868;28;20554;-50
2022/03/03 01:05:54;;;;;;;18.40;15.20;;;-1.40;99.90;;;;;;5011028;28;21003;-50
2022/03/03 01:08:21;;;;;;;23.07;16.07;;;-1.30;99.90;;;;;;5004826;28;20455;-51
2022/03/03 01:10:47;;;;;;;20.37;16.47;;;-1.20;99.90;;;;;;5014364;28;20555;-50
2022/03/03 01:13:15;;;;;;;24.30;16.20;;;-1.10;99.90;;;;;;5011307;28;20537;-50
2022/03/03 01:15:43;;;;;;;20.07;16.40;;;-1.10;99.90;;;;;;5009458;28;20519;-50
2022/03/03 01:18:10;;;;;;;19.73;15.13;;;-1.10;99.90;;;;;;5008839;28;20514;-50
2022/03/03 01:20:36;;;;;;;19.70;16.10;;;-1.20;99.90;;;;;;5007486;28;20510;-50
2022/03/03 01:23:03;;;;;;;21.13;16.67;;;-1.10;99.90;;;;;;5004239;28;20539;-51
2022/03/03 01:25:30;;;;;;;22.47;15.80;;;-1.20;99.90;;;;;;5006526;28;20878;-50
2022/03/03 01:27:57;;;;;;;22.40;17.90;;;-1.20;99.90;;;;;;5010350;28;20868;-50
2022/03/03 01:30:23;;;;;;;23.97;16.77;;;-1.10;99.90;;;;;;5011567;28;20471;-51
2022/03/03 01:32:51;;;;;;;23.80;17.20;;;-1.20;99.90;;;;;;5001920;28;20507;-50
2022/03/03 01:35:18;;;;;;;22.93;16.50;;;-1.20;99.90;;;;;;5004061;28;20483;-50
2022/03/03 01:37:45;;;;;;;25.93;16.83;;;-1.20;99.90;;;;;;5009416;28;20506;-52
2022/03/03 01:40:12;;;;;;;22.57;16.13;;;-1.20;99.90;;;;;;5012099;28;20538;-52
2022/03/03 01:42:39;;;;;;;24.13;16.73;;;-1.20;99.90;;;;;;5014096;28;20502;-52
2022/03/03 01:45:07;;;;;;;22.10;16.60;;;-1.20;99.90;;;;;;5013824;28;20467;-52
2022/03/03 01:47:33;;;;;;;21.10;15.77;;;-1.20;99.90;;;;;;4999377;28;20444;-53
2022/03/03 01:50:02;;;;;;;25.13;16.13;;;-1.30;99.90;;;;;;5013772;28;20452;-53
2022/03/03 01:52:28;;;;;;;30.53;16.23;;;-1.30;99.90;;;;;;5013450;28;20506;-52
2022/03/03 01:54:55;;;;;;;23.87;16.63;;;-1.20;99.90;;;;;;5006775;28;20479;-52
2022/03/03 01:57:22;;;;;;;20.17;15.90;;;-1.10;99.90;;;;;;4999688;28;20449;-52
2022/03/03 01:59:49;;;;;;;21.60;15.83;;;-1.10;99.90;;;;;;5009858;28;20459;-52
2022/03/03 02:02:16;;;;;;;20.70;15.93;;;-1.10;99.90;;;;;;5011221;28;21010;-52
2022/03/03 02:04:43;;;;;;;22.67;16.50;;;-1.10;99.90;;;;;;5011680;28;20483;-53
2022/03/03 02:07:11;;;;;;;28.23;16.23;;;-1.00;99.90;;;;;;5005762;28;20455;-53
2022/03/03 02:09:39;;;;;;;23.57;16.77;;;-1.00;99.90;;;;;;5004790;28;20456;-51
2022/03/03 02:12:06;;;;;;;19.60;15.50;;;-0.90;99.90;;;;;;5010926;28;20506;-55
2022/03/03 02:14:41;;;;;;;18.23;16.20;;;-0.90;99.90;;;;;;5014155;28;20483;-52
2022/03/03 02:17:07;;;;;;;21.80;16.40;;;-0.90;99.90;;;;;;5011372;28;20838;-53
2022/03/03 02:19:34;;;;;;;20.03;16.27;;;-0.90;99.90;;;;;;5013102;28;20464;-51
2022/03/03 02:22:02;;;;;;;20.97;16.27;;;-0.80;99.90;;;;;;5012071;28;20460;-52
2022/03/03 02:24:29;;;;;;;21.37;15.97;;;-0.80;99.90;;;;;;5005134;28;20484;-52
2022/03/03 02:26:58;;;;;;;24.53;16.50;;;-0.80;99.90;;;;;;5003564;28;20511;-52
2022/03/03 02:29:25;;;;;;;22.63;17.00;;;-0.80;99.90;;;;;;5006629;28;20501;-52
2022/03/03 02:31:51;;;;;;;18.80;16.57;;;-0.80;99.90;;;;;;5005776;28;20522;-53
2022/03/03 02:34:18;;;;;;;18.77;15.10;;;-0.80;99.90;;;;;;5012073;28;20491;-53
2022/03/03 02:36:45;;;;;;;22.47;16.33;;;-0.70;99.90;;;;;;5011152;28;20472;-52
2022/03/03 02:39:13;;;;;;;25.10;16.77;;;-0.60;99.90;;;;;;5008119;28;20444;-50
2022/03/03 02:41:39;;;;;;;21.80;16.10;;;-0.60;99.90;;;;;;5005313;28;21157;-50
2022/03/03 02:44:06;;;;;;;19.40;15.80;;;-0.60;99.90;;;;;;5009737;28;20525;-51
2022/03/03 02:46:33;;;;;;;22.27;16.57;;;-0.60;99.90;;;;;;5012063;28;20468;-51
2022/03/03 02:49:00;;;;;;;23.50;17.17;;;-0.60;99.90;;;;;;5012348;28;20470;-49
2022/03/03 02:51:26;;;;;;;20.53;14.80;;;-0.60;99.90;;;;;;5012437;28;20490;-50
2022/03/03 02:53:53;;;;;;;28.10;17.17;;;-0.60;99.90;;;;;;5012286;28;21175;-49
2022/03/03 02:56:21;;;;;;;24.40;16.07;;;-0.50;99.90;;;;;;5012200;28;20554;-49
2022/03/03 02:58:47;;;;;;;21.10;16.00;;;-0.60;99.90;;;;;;5009880;28;20460;-53
2022/03/03 03:01:14;;;;;;;21.80;17.07;;;-0.50;99.90;;;;;;5008622;28;20506;-53
2022/03/03 03:03:42;;;;;;;21.43;16.67;;;-0.50;99.90;;;;;;5010151;28;20514;-52
2022/03/03 03:06:12;;;;;;;26.80;18.70;;;-0.50;99.90;;;;;;5004295;28;20457;-52
2022/03/03 03:08:38;;;;;;;21.47;17.80;;;-0.50;99.90;;;;;;5011271;28;20522;-52
2022/03/03 03:11:05;;;;;;;22.27;15.93;;;-0.60;99.90;;;;;;5009921;28;20456;-51
2022/03/03 03:13:33;;;;;;;20.80;16.30;;;-0.70;99.90;;;;;;5010205;28;20965;-52
2022/03/03 03:15:59;;;;;;;23.30;17.27;;;-0.80;99.90;;;;;;5004701;28;20487;-52
2022/03/03 03:18:26;;;;;;;24.23;17.37;;;-0.90;99.90;;;;;;5010530;28;20468;-53
2022/03/03 03:20:54;;;;;;;23.67;16.83;;;-0.90;99.90;;;;;;5011306;28;20526;-53
2022/03/03 03:23:23;;;;;;;28.00;19.20;;;-1.00;99.90;;;;;;5010991;28;20463;-53
2022/03/03 03:25:50;;;;;;;21.17;16.90;;;-1.00;99.90;;;;;;5007782;28;20488;-53
2022/03/03 03:28:18;;;;;;;24.83;16.77;;;-1.10;99.90;;;;;;5007180;28;20888;-53
2022/03/03 03:30:47;;;;;;;23.80;17.10;;;-1.10;99.90;;;;;;5011350;28;20551;-53
2022/03/03 03:33:13;;;;;;;24.37;16.83;;;-1.20;99.90;;;;;;5007894;28;20991;-53
2022/03/03 03:35:40;;;;;;;27.10;18.60;;;-1.30;99.90;;;;;;5010681;28;20479;-52
2022/03/03 03:38:07;;;;;;;22.60;17.87;;;-1.30;99.90;;;;;;5004377;28;20456;-53
2022/03/03 03:40:34;;;;;;;22.87;17.20;;;-1.40;99.90;;;;;;5005952;28;20452;-52
2022/03/03 03:43:01;;;;;;;23.87;16.60;;;-1.40;99.90;;;;;;4999232;28;20506;-52
2022/03/03 03:45:28;;;;;;;21.70;17.60;;;-1.50;99.90;;;;;;5010086;28;21000;-53
2022/03/03 03:47:55;;;;;;;22.90;16.70;;;-1.60;99.90;;;;;;5008987;28;20499;-53
2022/03/03 03:50:22;;;;;;;23.47;17.57;;;-1.60;99.90;;;;;;5010775;28;20460;-52
2022/03/03 03:52:49;;;;;;;21.67;16.53;;;-1.70;99.90;;;;;;5010158;28;20525;-52
2022/03/03 03:55:15;;;;;;;24.00;17.00;;;-1.70;99.90;;;;;;5009849;28;21093;-52
2022/03/03 03:57:42;;;;;;;23.33;17.77;;;-1.70;99.90;;;;;;5010029;28;20494;-52
2022/03/03 04:00:12;;;;;;;22.47;17.90;;;-1.80;99.90;;;;;;5010073;28;20448;-52
2022/03/03 04:02:39;;;;;;;26.43;18.00;;;-1.80;99.90;;;;;;5012019;28;20458;-52
2022/03/03 04:05:07;;;;;;;24.40;17.70;;;-1.80;99.90;;;;;;5009447;28;20554;-52
2022/03/03 04:07:34;;;;;;;21.70;16.93;;;-1.90;99.90;;;;;;5003774;28;20843;-52
2022/03/03 04:10:01;;;;;;;21.77;18.00;;;-1.90;99.90;;;;;;5011502;28;20464;-53
2022/03/03 04:12:27;;;;;;;21.53;16.40;;;-1.90;99.90;;;;;;5004373;28;20502;-52
2022/03/03 04:14:54;;;;;;;21.40;16.77;;;-1.80;99.90;;;;;;5005132;28;20484;-53
2022/03/03 04:17:21;;;;;;;21.33;15.37;;;-1.90;99.90;;;;;;5010561;28;20460;-52
2022/03/03 04:19:47;;;;;;;27.77;16.73;;;-1.90;99.90;;;;;;5008380;28;20467;-52
2022/03/03 04:22:15;;;;;;;22.80;16.33;;;-1.90;99.90;;;;;;5010249;28;20464;-52
2022/03/03 04:24:42;;;;;;;20.27;16.50;;;-1.90;99.90;;;;;;5010048;28;20487;-53
2022/03/03 04:27:08;;;;;;;20.33;15.70;;;-1.90;99.90;;;;;;5010132;28;20459;-53
2022/03/03 04:29:35;;;;;;;19.30;15.73;;;-2.00;99.90;;;;;;5005513;28;20521;-52
2022/03/03 04:32:03;;;;;;;21.70;17.60;;;-2.00;99.90;;;;;;5009079;28;20557;-54
2022/03/03 04:34:29;;;;;;;21.60;17.73;;;-2.00;99.90;;;;;;5009227;28;20498;-53
2022/03/03 04:36:56;;;;;;;26.20;19.33;;;-1.90;99.90;;;;;;5009261;28;20641;-53
2022/03/03 04:39:24;;;;;;;23.60;18.20;;;-1.90;99.90;;;;;;5002762;28;20543;-52
2022/03/03 04:41:51;;;;;;;26.77;20.17;;;-1.90;99.90;;;;;;5008940;28;20887;-52
2022/03/03 04:44:18;;;;;;;31.33;20.60;;;-1.90;99.90;;;;;;4996751;28;21068;-54
2022/03/03 04:46:44;;;;;;;28.83;21.13;;;-1.80;99.90;;;;;;5007083;28;20456;-52
2022/03/03 04:49:12;;;;;;;31.27;21.70;;;-1.80;98.20;;;;;;5001170;28;20519;-52
2022/03/03 04:51:39;;;;;;;27.03;21.00;;;-1.80;95.80;;;;;;4996811;28;20519;-50
2022/03/03 04:54:06;;;;;;;29.13;21.93;;;-1.80;83.90;;;;;;5010467;28;20546;-50
2022/03/03 04:56:35;;;;;;;29.57;21.43;;;-1.80;77.00;;;;;;5004579;28;20514;-50
2022/03/03 04:59:02;;;;;;;27.70;21.50;;;-1.80;77.30;;;;;;5008433;28;20464;-51
2022/03/03 05:01:29;;;;;;;30.20;20.90;;;-1.80;77.40;;;;;;5006978;28;20510;-52
2022/03/03 05:03:56;;;;;;;29.70;23.50;;;-1.80;72.30;;;;;;5001885;28;20561;-51
2022/03/03 05:06:22;;;;;;;32.60;23.40;;;-1.80;68.70;;;;;;5013060;28;20518;-51
2022/03/03 05:08:49;;;;;;;33.17;23.07;;;-1.80;68.10;;;;;;5011007;28;20471;-50
2022/03/03 05:11:16;;;;;;;27.17;20.87;;;-1.80;68.90;;;;;;5011203;28;20549;-51
2022/03/03 05:13:44;;;;;;;29.70;21.60;;;-1.80;64.20;;;;;;5010288;28;20470;-50
2022/03/03 05:16:10;;;;;;;28.33;21.63;;;-1.80;65.50;;;;;;5011245;28;21015;-50
2022/03/03 05:18:38;;;;;;;31.73;22.93;;;-1.90;64.10;;;;;;5012397;28;20467;-53
2022/03/03 05:21:05;;;;;;;31.00;22.20;;;-1.90;62.00;;;;;;5003694;28;20984;-52
2022/03/03 05:23:32;;;;;;;27.03;21.73;;;-2.00;64.30;;;;;;5011368;28;20466;-52
2022/03/03 05:25:58;;;;;;;28.83;21.67;;;-2.00;63.20;;;;;;4974308;28;993483;-53
2022/03/03 05:28:25;;;;;;;26.63;20.93;;;-2.00;63.20;;;;;;5008113;28;20201;-53
2022/03/03 05:30:53;;;;;;;29.67;21.80;;;-2.00;66.60;;;;;;5007968;28;20456;-53
2022/03/03 05:33:20;;;;;;;28.50;21.87;;;-2.00;61.50;;;;;;5003880;28;20577;-52
2022/03/03 05:35:49;;;;;;;29.50;20.30;;;-2.10;64.30;;;;;;5011889;28;20493;-52
2022/03/03 05:38:15;;;;;;;34.73;23.07;;;-2.00;62.20;;;;;;5000865;28;20460;-52
2022/03/03 05:40:42;;;;;;;30.30;22.23;;;-2.00;60.40;;;;;;5009774;28;20534;-51
2022/03/03 05:43:10;;;;;;;31.13;23.80;;;-2.00;59.30;;;;;;5008392;28;21023;-52
2022/03/03 05:45:39;;;;;;;33.43;24.30;;;-2.00;51.90;;;;;;5013663;28;20503;-51
2022/03/03 05:48:08;;;;;;;35.70;26.17;;;-1.90;41.20;;;;;;5008160;28;20464;-51
2022/03/03 05:50:35;;;;;;;32.00;25.83;;;-1.90;41.50;;;;;;5001436;28;20486;-52
2022/03/03 05:53:02;;;;;;;35.37;26.13;;;-2.00;36.00;;;;;;5009141;28;20882;-52
2022/03/03 05:55:30;;;;;;;35.60;26.30;;;-1.90;20.40;;;;;;5010247;28;20872;-51
2022/03/03 05:57:59;;;;;;;32.63;26.43;;;-1.80;28.10;;;;;;5007199;28;20541;-52
2022/03/03 06:00:29;;;;;;;32.40;25.00;;;-1.80;21.80;;;;;;5003582;28;20469;-50
2022/03/03 06:02:56;;;;;;;33.30;25.60;;;-1.80;23.60;;;;;;5002770;28;20472;-49
2022/03/03 06:05:27;;;;;;;36.33;25.80;;;-1.80;25.90;;;;;;5001026;28;20530;-50
2022/03/03 06:07:55;;;;;;;35.27;24.97;;;-1.70;75.40;;;;;;4998880;28;20462;-52
2022/03/03 06:10:25;;;;;;;34.43;25.63;;;-1.60;36.70;;;;;;4997637;28;20470;-49
2022/03/03 06:12:59;;;;;;;34.60;26.17;;;-1.40;40.50;;;;;;5002282;28;20487;-51
2022/03/03 06:15:26;;;;;;;34.03;25.30;;;-1.40;51.90;;;;;;5000986;28;20556;-50
2022/03/03 06:17:54;;;;;;;32.50;23.70;;;-1.40;53.80;;;;;;5001898;28;20502;-50
2022/03/03 06:20:21;;;;;;;30.17;25.00;;;-1.40;55.00;;;;;;5001949;28;20455;-51
2022/03/03 06:22:49;;;;;;;28.77;22.73;;;-1.40;48.70;;;;;;5000998;28;20472;-52
2022/03/03 06:25:16;;;;;;;27.27;20.97;;;-1.50;39.60;;;;;;5004105;28;20903;-51
2022/03/03 06:27:43;;;;;;;21.40;19.10;;;-1.50;35.10;;;;;;5002139;28;20491;-50
2022/03/03 06:30:10;;;;;;;23.03;18.87;;;-1.60;42.70;;;;;;5007547;28;20466;-51
2022/03/03 06:32:37;;;;;;;19.87;17.87;;;-1.80;29.30;;;;;;5003243;28;20538;-50
2022/03/03 06:35:04;;;;;;;20.93;17.87;;;-1.80;99.90;;;;;;5004233;28;20484;-50
2022/03/03 06:37:31;;;;;;;21.13;18.10;;;-1.80;99.90;;;;;;5005752;28;20484;-52
2022/03/03 06:39:59;;;;;;;23.93;18.93;;;-1.70;99.90;;;;;;5011101;28;20487;-51
2022/03/03 06:42:26;;;;;;;22.00;17.97;;;-1.60;99.90;;;;;;5009059;28;20460;-51
2022/03/03 06:44:54;;;;;;;23.27;16.43;;;-1.60;99.90;;;;;;5004808;28;20479;-50
2022/03/03 06:47:20;;;;;;;23.80;19.27;;;-1.60;99.90;;;;;;5006765;28;20460;-50
2022/03/03 06:49:48;;;;;;;24.27;19.70;;;-1.40;99.90;;;;;;5008590;28;22853;-51
2022/03/03 06:52:16;;;;;;;29.77;24.30;;;-1.40;99.90;;;;;;5007114;28;20816;-51
2022/03/03 06:54:45;;;;;;;35.47;24.47;;;-1.30;99.90;;;;;;5007117;28;20911;-51
2022/03/03 06:57:14;;;;;;;21.40;19.07;;;-1.30;99.90;;;;;;5005016;28;20480;-50
2022/03/03 06:59:41;;;;;;;20.47;17.37;;;-1.30;99.90;;;;;;5005189;28;20575;-50
2022/03/03 07:02:08;;;;;;;21.50;17.13;;;-1.20;99.90;;;;;;5004375;28;20471;-51
2022/03/03 07:04:34;;;;;;;19.93;17.87;;;-1.20;99.90;;;;;;5009925;28;20892;-50
2022/03/03 07:07:01;;;;;;;19.27;17.13;;;-1.10;99.90;;;;;;5010175;28;20452;-52
2022/03/03 07:09:30;;;;;;;21.80;18.17;;;-1.20;99.90;;;;;;5009824;28;20464;-50
2022/03/03 07:11:59;;;;;;;24.37;19.33;;;-1.10;99.90;;;;;;5007682;28;20467;-51
2022/03/03 07:14:28;;;;;;;23.07;20.37;;;-1.20;99.90;;;;;;5007664;28;20896;-50
2022/03/03 07:17:00;;;;;;;20.90;17.00;;;-1.20;99.90;;;;;;5008271;28;20558;-51
2022/03/03 07:19:44;;;;;;;22.20;17.33;;;-1.10;99.90;;;;;;5009740;28;20995;-51
2022/03/03 07:22:19;;;;;;;22.60;19.87;;;-1.10;99.90;;;;;;5003499;28;20457;-51
2022/03/03 07:24:47;;;;;;;20.10;16.97;;;-1.00;99.90;;;;;;5003592;28;20483;-51
2022/03/03 07:27:20;;;;;;;21.80;19.50;;;-1.10;99.90;;;;;;5006353;28;20460;-51
2022/03/03 07:29:57;;;;;;;22.23;18.50;;;-1.00;99.90;;;;;;5003794;28;20491;-49
2022/03/03 07:32:32;;;;;;;19.00;16.93;;;-0.90;99.90;;;;;;5009445;28;20459;-51
2022/03/03 07:35:02;;;;;;;21.50;17.30;;;-0.90;99.90;;;;;;5010156;28;20475;-50
2022/03/03 07:37:34;;;;;;;20.93;17.80;;;-1.00;99.90;;;;;;5005041;28;20483;-50
2022/03/03 07:40:06;;;;;;;20.13;16.67;;;-1.00;99.90;;;;;;5009596;28;20514;-50
2022/03/03 07:42:33;;;;;;;21.90;17.93;;;-1.00;99.90;;;;;;5003030;28;20490;-51
2022/03/03 07:45:03;;;;;;;20.33;16.93;;;-0.80;99.90;;;;;;5005790;28;20491;-51
2022/03/03 07:47:30;;;;;;;23.07;17.00;;;-0.80;99.90;;;;;;5002170;28;20567;-51
2022/03/03 07:49:57;;;;;;;19.37;16.53;;;-0.80;99.90;;;;;;5004776;28;20541;-50
2022/03/03 07:52:24;;;;;;;20.53;16.27;;;-0.70;99.90;;;;;;4998898;28;20542;-50
2022/03/03 07:54:51;;;;;;;22.20;17.87;;;-0.70;99.90;;;;;;5003684;28;20479;-50
2022/03/03 07:57:18;;;;;;;24.23;19.00;;;-0.70;24.00;;;;;;5004727;28;20484;-51
2022/03/03 07:59:48;;;;;;;21.53;17.93;;;-0.80;99.90;;;;;;5006443;28;20459;-51
2022/03/03 08:02:22;;;;;;;20.43;18.20;;;-0.80;99.90;;;;;;5005031;28;20474;-51
2022/03/03 08:04:51;;;;;;;19.73;16.33;;;-0.60;99.90;;;;;;4996319;28;21195;-50
2022/03/03 08:07:20;;;;;;;21.17;16.67;;;-0.60;99.90;;;;;;5003646;28;20455;-50
2022/03/03 08:09:48;;;;;;;20.93;16.97;;;-0.50;99.90;;;;;;5004176;28;20471;-50
2022/03/03 08:12:17;;;;;;;20.67;16.33;;;-0.30;99.90;;;;;;5001588;28;20460;-51
2022/03/03 08:14:44;;;;;;;20.10;17.57;;;-0.40;25.20;;;;;;5004397;28;20530;-50
2022/03/03 08:17:14;;;;;;;17.33;15.40;;;-0.30;33.90;;;;;;5003335;28;21008;-50
2022/03/03 08:19:44;;;;;;;20.30;16.50;;;-0.30;31.80;;;;;;5005215;28;20562;-51
2022/03/03 08:22:13;;;;;;;17.93;14.30;;;-0.40;47.10;;;;;;5003914;28;20555;-51
2022/03/03 08:24:43;;;;;;;22.27;15.63;;;-0.40;41.30;;;;;;5005841;28;20491;-52
2022/03/03 08:27:11;;;;;;;18.97;15.50;;;-0.40;28.40;;;;;;5003902;28;20460;-50
2022/03/03 08:29:38;;;;;;;16.50;14.47;;;-0.30;27.60;;;;;;5000737;28;20471;-50
2022/03/03 08:32:11;;;;;;;17.67;14.57;;;-0.30;30.70;;;;;;5007213;28;20464;-52
2022/03/03 08:34:43;;;;;;;17.63;14.80;;;-0.20;30.40;;;;;;5001708;28;20575;-55
2022/03/03 08:37:17;;;;;;;15.10;13.50;;;-0.30;41.60;;;;;;5000426;28;20515;-55
2022/03/03 08:39:46;;;;;;;15.00;13.40;;;-0.10;74.50;;;;;;5008689;28;20506;-53
2022/03/03 08:42:16;;;;;;;18.50;14.70;;;0.00;35.60;;;;;;5013916;28;20455;-51
2022/03/03 08:44:44;;;;;;;20.23;15.80;;;0.00;43.80;;;;;;5008280;28;20996;-50
2022/03/03 08:47:15;;;;;;;17.60;14.33;;;-0.10;54.90;;;;;;5003876;28;20460;-51
2022/03/03 08:49:45;;;;;;;14.70;13.20;;;-0.20;46.50;;;;;;5010365;28;20960;-51
2022/03/03 08:52:13;;;;;;;14.90;12.90;;;-0.20;36.00;;;;;;5011410;28;20459;-50
2022/03/03 08:54:39;;;;;;;16.77;14.50;;;-0.10;31.60;;;;;;5010981;28;20561;-50
2022/03/03 08:57:06;;;;;;;18.87;14.90;;;0.00;34.10;;;;;;5013030;28;20553;-51
2022/03/03 08:59:33;;;;;;;16.83;12.83;;;0.10;33.30;;;;;;5012347;28;20519;-54
2022/03/03 09:02:00;;;;;;;15.40;13.30;;;0.10;38.70;;;;;;5007380;28;20580;-58
2022/03/03 09:04:26;;;;;;;17.53;14.60;;;0.10;50.40;;;;;;5012102;28;20483;-52
2022/03/03 09:06:53;;;;;;;17.60;14.77;;;0.20;45.70;;;;;;5011532;28;20460;-53
2022/03/03 09:09:21;;;;;;;16.07;13.17;;;0.20;54.80;;;;;;5010796;28;20471;-53
2022/03/03 09:11:47;;;;;;;16.20;12.93;;;0.10;76.80;;;;;;5003437;28;20465;-54
2022/03/03 09:14:14;;;;;;;14.60;13.10;;;0.20;78.70;;;;;;5008807;28;20486;-52
2022/03/03 09:16:41;;;;;;;15.53;13.90;;;0.30;64.30;;;;;;5008253;28;20488;-53
2022/03/03 09:19:08;;;;;;;16.30;13.90;;;0.20;70.10;;;;;;5012769;28;20945;-53
2022/03/03 09:21:34;;;;;;;14.50;12.97;;;0.30;62.80;;;;;;5008254;28;20467;-52
2022/03/03 09:24:01;;;;;;;14.60;13.03;;;0.30;69.80;;;;;;5007599;28;20491;-53
2022/03/03 09:26:29;;;;;;;15.30;13.33;;;0.30;70.70;;;;;;5001312;28;20488;-53
2022/03/03 09:28:56;;;;;;;16.37;12.73;;;0.30;71.30;;;;;;5008671;28;20568;-53
2022/03/03 09:31:23;;;;;;;14.93;13.37;;;0.20;61.30;;;;;;4997047;28;20522;-51
2022/03/03 09:33:50;;;;;;;15.40;12.63;;;0.10;53.60;;;;;;5007683;28;20514;-52
2022/03/03 09:36:18;;;;;;;14.20;12.10;;;0.30;47.10;;;;;;5005333;28;20886;-53
2022/03/03 09:38:44;;;;;;;17.83;14.43;;;0.30;56.10;;;;;;5000830;28;20470;-52
2022/03/03 09:41:11;;;;;;;16.90;13.50;;;0.40;69.40;;;;;;5002218;28;20582;-54
2022/03/03 09:43:40;;;;;;;16.23;13.63;;;0.40;69.50;;;;;;5005579;28;20517;-52
2022/03/03 09:46:06;;;;;;;17.30;12.80;;;0.50;67.20;;;;;;5012220;28;20460;-51
2022/03/03 09:48:33;;;;;;;17.20;14.13;;;0.60;74.30;;;;;;5007590;28;20606;-53
2022/03/03 09:51:00;;;;;;;16.30;12.83;;;0.60;80.80;;;;;;5012387;28;20460;-53
2022/03/03 09:53:27;;;;;;;15.40;12.23;;;0.60;82.70;;;;;;5010551;28;20487;-53
2022/03/03 09:55:53;;;;;;;14.83;12.43;;;0.70;89.70;;;;;;5001640;28;20484;-53
2022/03/03 09:58:21;;;;;;;16.17;13.57;;;0.80;83.40;;;;;;5001915;28;20579;-53
2022/03/03 10:00:49;;;;;;;16.83;14.63;;;0.60;99.90;;;;;;5000736;28;20561;-53
2022/03/03 10:03:17;;;;;;;18.63;14.13;;;0.60;97.00;;;;;;5011726;28;20464;-52
2022/03/03 10:05:47;;;;;;;15.80;12.63;;;0.70;82.40;;;;;;5007382;28;20483;-53
2022/03/03 10:08:16;;;;;;;15.83;13.50;;;0.70;78.40;;;;;;5006015;28;20502;-53
2022/03/03 10:10:44;;;;;;;14.73;12.80;;;0.70;71.50;;;;;;5006731;28;20463;-53
2022/03/03 10:13:14;;;;;;;19.70;14.10;;;0.80;75.00;;;;;;5009630;28;20456;-53
2022/03/03 10:15:41;;;;;;;19.63;14.40;;;0.80;96.20;;;;;;5008476;28;20491;-53
2022/03/03 10:18:13;;;;;;;15.57;13.37;;;0.90;84.10;;;;;;5010215;28;20553;-52
2022/03/03 10:20:49;;;;;;;15.37;12.70;;;0.90;99.90;;;;;;5011769;28;20468;-53
2022/03/03 10:23:16;;;;;;;16.70;13.87;;;0.90;90.30;;;;;;5008292;28;20972;-52
2022/03/03 10:25:44;;;;;;;19.30;14.33;;;0.90;99.90;;;;;;5007990;28;20483;-52
2022/03/03 10:28:14;;;;;;;19.30;14.40;;;1.00;90.30;;;;;;5008078;28;20453;-52
2022/03/03 10:30:48;;;;;;;24.00;15.33;;;1.10;99.90;;;;;;5010729;28;20468;-53
2022/03/03 10:33:18;;;;;;;19.03;14.13;;;1.20;99.90;;;;;;5006044;28;20975;-53
2022/03/03 10:35:59;;;;;;;20.90;14.73;;;1.10;99.90;;;;;;5004056;28;20510;-52
2022/03/03 10:38:26;;;;;;;17.73;14.00;;;1.20;99.90;;;;;;5005100;28;20512;-53
2022/03/03 10:40:52;;;;;;;18.70;14.57;;;1.20;99.90;;;;;;5006716;28;20460;-52
2022/03/03 10:43:19;;;;;;;19.63;13.50;;;1.30;99.90;;;;;;5005952;28;20533;-52
2022/03/03 10:45:54;;;;;;;19.63;14.63;;;1.10;99.90;;;;;;5007556;28;20475;-57
2022/03/03 10:48:24;;;;;;;22.20;14.80;;;1.10;99.90;;;;;;5009553;28;20439;-52
2022/03/03 10:50:54;;;;;;;21.63;15.23;;;1.10;99.90;;;;;;5006781;28;20540;-53
2022/03/03 10:53:22;;;;;;;20.33;14.93;;;1.30;99.20;;;;;;5010747;28;20459;-53
2022/03/03 10:56:04;;;;;;;19.93;14.47;;;1.30;99.90;;;;;;5004706;28;20538;-52
2022/03/03 10:58:44;;;;;;;21.77;14.73;;;1.30;99.90;;;;;;5004275;28;20504;-52
2022/03/03 11:01:11;;;;;;;20.10;14.07;;;1.30;96.20;;;;;;5001457;28;20459;-53
2022/03/03 11:03:41;;;;;;;23.33;15.90;;;1.40;99.90;;;;;;5009050;28;20886;-52
2022/03/03 11:06:08;;;;;;;20.87;14.33;;;1.30;99.00;;;;;;5007324;28;20463;-52
2022/03/03 11:08:35;;;;;;;18.50;13.50;;;1.50;99.90;;;;;;5010896;28;20486;-52
2022/03/03 11:11:03;;;;;;;19.40;14.13;;;1.50;99.90;;;;;;5005457;28;20464;-51
2022/03/03 11:13:29;;;;;;;22.63;16.27;;;1.50;99.90;;;;;;4996735;28;20522;-51
2022/03/03 11:15:57;;;;;;;18.47;13.97;;;1.60;99.90;;;;;;5006433;28;20483;-51
2022/03/03 11:18:25;;;;;;;30.77;17.70;;;1.50;99.90;;;;;;5001717;28;20479;-51
2022/03/03 11:20:52;;;;;;;33.50;24.27;;;1.50;99.90;;;;;;5008258;28;20459;-52
2022/03/03 11:23:20;;;;;;;27.70;19.57;;;1.50;99.90;;;;;;5009351;28;20911;-51
2022/03/03 11:25:49;;;;;;;26.87;18.53;;;1.70;98.40;;;;;;4998381;28;20499;-51
2022/03/03 11:28:18;;;;;;;37.13;22.93;;;1.70;99.90;;;;;;5010754;28;20447;-51
2022/03/03 11:30:46;;;;;;;31.40;19.10;;;1.60;91.50;;;;;;5007438;28;20983;-53
2022/03/03 11:33:27;;;;;;;28.73;19.80;;;1.80;99.80;;;;;;5009405;28;20474;-51
2022/03/03 11:35:57;;;;;;;26.20;19.23;;;1.80;99.90;;;;;;5008426;28;20483;-53
2022/03/03 11:38:25;;;;;;;26.73;18.00;;;1.80;99.90;;;;;;5004255;28;20483;-53
2022/03/03 11:40:55;;;;;;;28.67;18.60;;;1.80;99.90;;;;;;5004803;28;20456;-52
2022/03/03 11:43:22;;;;;;;31.07;19.67;;;1.90;99.90;;;;;;5009642;28;20463;-53
2022/03/03 11:45:51;;;;;;;32.07;18.97;;;1.80;99.90;;;;;;5007060;28;20479;-53
2022/03/03 11:48:19;;;;;;;28.00;18.87;;;1.80;99.90;;;;;;5010127;28;22299;-52
2022/03/03 11:50:46;;;;;;;31.30;20.30;;;1.80;97.30;;;;;;5006176;28;20521;-52
2022/03/03 11:53:31;;;;;;;33.50;24.00;;;1.90;99.90;;;;;;5001068;28;20456;-51
2022/03/03 11:56:01;;;;;;;31.70;21.37;;;2.00;98.70;;;;;;5004120;28;21008;-51
2022/03/03 11:58:31;;;;;;;30.93;20.87;;;1.90;99.90;;;;;;5004558;28;20495;-50
2022/03/03 12:01:12;;;;;;;32.80;20.70;;;2.00;96.50;;;;;;5006980;28;20510;-51
2022/03/03 12:04:02;;;;;;;31.70;22.03;;;2.00;99.90;;;;;;5006855;28;20835;-51
2022/03/03 12:06:43;;;;;;;34.03;22.70;;;2.00;99.90;;;;;;5003275;28;20826;-50
2022/03/03 12:09:19;;;;;;;35.50;21.40;;;2.00;99.90;;;;;;4998204;28;20488;-50
2022/03/03 12:11:46;;;;;;;29.13;19.63;;;2.00;99.90;;;;;;5006118;28;20813;-51
2022/03/03 12:14:31;;;;;;;30.80;20.23;;;2.20;99.90;;;;;;5005352;28;20484;-51
2022/03/03 12:17:31;;;;;;;33.53;22.60;;;2.20;99.90;;;;;;5003246;28;20471;-51
2022/03/03 12:20:30;;;;;;;39.30;22.87;;;2.30;99.90;;;;;;4999815;28;20846;-51
2022/03/03 12:23:05;;;;;;;37.97;23.53;;;2.30;99.90;;;;;;5006478;28;20490;-51
2022/03/03 12:25:58;;;;;;;40.20;24.83;;;2.20;99.90;;;;;;5003824;28;20565;-50
2022/03/03 12:28:27;;;;;;;44.20;26.70;;;2.30;99.90;;;;;;5005631;28;20451;-50
2022/03/03 12:30:55;;;;;;;40.17;25.23;;;2.30;99.90;;;;;;5004728;28;20490;-51
2022/03/03 12:33:23;;;;;;;38.70;24.33;;;2.30;99.90;;;;;;4999738;28;20461;-51
2022/03/03 12:35:50;;;;;;;37.40;23.53;;;2.30;99.90;;;;;;5005027;28;20483;-52
2022/03/03 12:38:17;;;;;;;41.10;26.37;;;2.20;99.90;;;;;;5002536;28;20502;-51